sensor_id;sensor_type;location;lat;lon;timestamp;P1;durP1;ratioP1;P2;durP2;ratioP2
30289;SDS011;17105;55.652;37.710;2022-09-13T00:00:16;11.07;;;6.18;;
30289;SDS011;17105;55.652;37.710;2022-09-13T00:00:51;15.38;;;6.63;;
30289;SDS011;17105;55.652;37.710;2022-09-13T00:01:27;12.02;;;6.80;;
30289;SDS011;17105;55.652;37.710;2022-09-13T00:02:02;11.43;;;6.63;;
30289;SDS011;17105;55.652;37.710;2022-09-13T00:02:36;10.93;;;6.20;;
30289;SDS011;17105;55.652;37.710;2022-09-13T00:03:10;11.80;;;6.22;;
30289;SDS011;17105;55.652;37.710;2022-09-13T00:03:44;14.63;;;6.50;;
30289;SDS011;17105;55.652;37.710;2022-09-13T00:04:18;11.38;;;6.20;;
30289;SDS011;17105;55.652;37.710;2022-09-13T00:04:53;13.32;;;6.68;;
30289;SDS011;17105;55.652;37.710;2022-09-13T00:05:28;10.55;;;6.53;;
30289;SDS011;17105;55.652;37.710;2022-09-13T00:06:06;10.27;;;6.63;;
30289;SDS011;17105;55.652;37.710;2022-09-13T00:06:42;10.00;;;6.55;;
30289;SDS011;17105;55.652;37.710;2022-09-13T00:07:16;12.63;;;6.60;;
30289;SDS011;17105;55.652;37.710;2022-09-13T00:07:51;11.13;;;6.30;;
30289;SDS011;17105;55.652;37.710;2022-09-13T00:08:25;12.63;;;6.40;;
30289;SDS011;17105;55.652;37.710;2022-09-13T00:08:59;11.40;;;6.40;;
30289;SDS011;17105;55.652;37.710;2022-09-13T00:09:35;11.45;;;6.13;;
30289;SDS011;17105;55.652;37.710;2022-09-13T00:10:08;11.20;;;6.68;;
30289;SDS011;17105;55.652;37.710;2022-09-13T00:10:43;12.70;;;6.70;;
30289;SDS011;17105;55.652;37.710;2022-09-13T00:11:20;10.20;;;6.38;;
30289;SDS011;17105;55.652;37.710;2022-09-13T00:11:55;11.20;;;6.53;;
30289;SDS011;17105;55.652;37.710;2022-09-13T00:12:29;10.75;;;6.47;;
30289;SDS011;17105;55.652;37.710;2022-09-13T00:13:04;12.07;;;6.38;;
30289;SDS011;17105;55.652;37.710;2022-09-13T00:13:38;10.73;;;6.53;;
30289;SDS011;17105;55.652;37.710;2022-09-13T00:14:13;10.20;;;6.20;;
30289;SDS011;17105;55.652;37.710;2022-09-13T00:14:47;8.63;;;5.75;;
30289;SDS011;17105;55.652;37.710;2022-09-13T00:15:23;11.70;;;6.43;;
30289;SDS011;17105;55.652;37.710;2022-09-13T00:15:57;11.73;;;6.28;;
30289;SDS011;17105;55.652;37.710;2022-09-13T00:16:37;13.25;;;6.93;;
30289;SDS011;17105;55.652;37.710;2022-09-13T00:17:11;10.77;;;6.30;;
30289;SDS011;17105;55.652;37.710;2022-09-13T00:17:45;14.57;;;6.60;;
30289;SDS011;17105;55.652;37.710;2022-09-13T00:18:21;11.00;;;6.60;;
30289;SDS011;17105;55.652;37.710;2022-09-13T00:18:55;11.50;;;6.68;;
30289;SDS011;17105;55.652;37.710;2022-09-13T00:19:29;12.15;;;6.93;;
30289;SDS011;17105;55.652;37.710;2022-09-13T00:20:05;10.23;;;6.20;;
30289;SDS011;17105;55.652;37.710;2022-09-13T00:20:39;11.98;;;6.72;;
30289;SDS011;17105;55.652;37.710;2022-09-13T00:21:13;12.55;;;6.47;;
30289;SDS011;17105;55.652;37.710;2022-09-13T00:21:49;10.77;;;6.43;;
30289;SDS011;17105;55.652;37.710;2022-09-13T00:22:24;12.70;;;6.78;;
30289;SDS011;17105;55.652;37.710;2022-09-13T00:22:58;10.60;;;6.53;;
30289;SDS011;17105;55.652;37.710;2022-09-13T00:23:33;14.45;;;6.75;;
30289;SDS011;17105;55.652;37.710;2022-09-13T00:24:08;10.27;;;6.32;;
30289;SDS011;17105;55.652;37.710;2022-09-13T00:24:42;11.05;;;6.13;;
30289;SDS011;17105;55.652;37.710;2022-09-13T00:25:18;15.02;;;6.90;;
30289;SDS011;17105;55.652;37.710;2022-09-13T00:25:52;11.07;;;6.38;;
30289;SDS011;17105;55.652;37.710;2022-09-13T00:26:27;11.30;;;6.82;;
30289;SDS011;17105;55.652;37.710;2022-09-13T00:27:02;13.38;;;6.90;;
30289;SDS011;17105;55.652;37.710;2022-09-13T00:27:37;11.80;;;6.57;;
30289;SDS011;17105;55.652;37.710;2022-09-13T00:28:12;11.63;;;6.88;;
30289;SDS011;17105;55.652;37.710;2022-09-13T00:28:48;11.85;;;6.95;;
30289;SDS011;17105;55.652;37.710;2022-09-13T00:29:23;14.07;;;6.97;;
30289;SDS011;17105;55.652;37.710;2022-09-13T00:29:58;12.88;;;6.88;;
30289;SDS011;17105;55.652;37.710;2022-09-13T00:30:33;12.23;;;6.80;;
30289;SDS011;17105;55.652;37.710;2022-09-13T00:31:09;13.93;;;7.03;;
30289;SDS011;17105;55.652;37.710;2022-09-13T00:31:44;12.80;;;6.72;;
30289;SDS011;17105;55.652;37.710;2022-09-13T00:32:18;10.60;;;6.53;;
30289;SDS011;17105;55.652;37.710;2022-09-13T00:32:54;12.95;;;7.55;;
30289;SDS011;17105;55.652;37.710;2022-09-13T00:33:27;11.27;;;6.82;;
30289;SDS011;17105;55.652;37.710;2022-09-13T00:34:01;13.32;;;7.38;;
30289;SDS011;17105;55.652;37.710;2022-09-13T00:34:37;12.13;;;6.80;;
30289;SDS011;17105;55.652;37.710;2022-09-13T00:35:11;10.52;;;6.68;;
30289;SDS011;17105;55.652;37.710;2022-09-13T00:35:44;14.50;;;7.50;;
30289;SDS011;17105;55.652;37.710;2022-09-13T00:36:20;10.95;;;7.28;;
30289;SDS011;17105;55.652;37.710;2022-09-13T00:36:54;12.05;;;7.00;;
30289;SDS011;17105;55.652;37.710;2022-09-13T00:37:28;12.90;;;6.70;;
30289;SDS011;17105;55.652;37.710;2022-09-13T00:38:02;11.60;;;6.72;;
30289;SDS011;17105;55.652;37.710;2022-09-13T00:38:35;15.43;;;6.72;;
30289;SDS011;17105;55.652;37.710;2022-09-13T00:39:10;14.13;;;7.22;;
30289;SDS011;17105;55.652;37.710;2022-09-13T00:39:45;13.82;;;6.75;;
30289;SDS011;17105;55.652;37.710;2022-09-13T00:40:22;14.02;;;6.88;;
30289;SDS011;17105;55.652;37.710;2022-09-13T00:40:57;11.15;;;6.32;;
30289;SDS011;17105;55.652;37.710;2022-09-13T00:41:30;12.73;;;6.65;;
30289;SDS011;17105;55.652;37.710;2022-09-13T00:42:07;12.45;;;7.03;;
30289;SDS011;17105;55.652;37.710;2022-09-13T00:42:44;11.93;;;6.55;;
30289;SDS011;17105;55.652;37.710;2022-09-13T00:43:18;14.68;;;6.93;;
30289;SDS011;17105;55.652;37.710;2022-09-13T00:43:52;16.30;;;6.55;;
30289;SDS011;17105;55.652;37.710;2022-09-13T00:44:46;13.35;;;6.53;;
30289;SDS011;17105;55.652;37.710;2022-09-13T00:45:21;9.60;;;6.35;;
30289;SDS011;17105;55.652;37.710;2022-09-13T00:45:56;12.43;;;6.35;;
30289;SDS011;17105;55.652;37.710;2022-09-13T00:46:33;12.82;;;7.30;;
30289;SDS011;17105;55.652;37.710;2022-09-13T00:47:09;11.77;;;6.45;;
30289;SDS011;17105;55.652;37.710;2022-09-13T00:47:45;13.82;;;6.50;;
30289;SDS011;17105;55.652;37.710;2022-09-13T00:48:20;11.93;;;6.60;;
30289;SDS011;17105;55.652;37.710;2022-09-13T00:48:57;15.57;;;6.55;;
30289;SDS011;17105;55.652;37.710;2022-09-13T00:49:32;15.82;;;6.70;;
30289;SDS011;17105;55.652;37.710;2022-09-13T00:50:11;11.60;;;6.40;;
30289;SDS011;17105;55.652;37.710;2022-09-13T00:50:46;12.88;;;6.47;;
30289;SDS011;17105;55.652;37.710;2022-09-13T00:51:22;13.52;;;6.78;;
30289;SDS011;17105;55.652;37.710;2022-09-13T00:51:58;12.45;;;6.38;;
30289;SDS011;17105;55.652;37.710;2022-09-13T00:52:32;14.80;;;7.10;;
30289;SDS011;17105;55.652;37.710;2022-09-13T00:53:08;16.30;;;6.40;;
30289;SDS011;17105;55.652;37.710;2022-09-13T00:53:45;12.65;;;7.45;;
30289;SDS011;17105;55.652;37.710;2022-09-13T00:54:21;10.95;;;6.38;;
30289;SDS011;17105;55.652;37.710;2022-09-13T00:54:57;14.05;;;7.20;;
30289;SDS011;17105;55.652;37.710;2022-09-13T00:55:35;11.90;;;7.10;;
30289;SDS011;17105;55.652;37.710;2022-09-13T00:56:10;11.23;;;6.80;;
30289;SDS011;17105;55.652;37.710;2022-09-13T00:56:47;12.38;;;6.82;;
30289;SDS011;17105;55.652;37.710;2022-09-13T00:57:23;14.75;;;6.85;;
30289;SDS011;17105;55.652;37.710;2022-09-13T00:57:58;13.98;;;7.13;;
30289;SDS011;17105;55.652;37.710;2022-09-13T00:58:35;14.65;;;6.88;;
30289;SDS011;17105;55.652;37.710;2022-09-13T00:59:11;12.57;;;6.72;;
30289;SDS011;17105;55.652;37.710;2022-09-13T00:59:47;15.00;;;7.03;;
30289;SDS011;17105;55.652;37.710;2022-09-13T01:00:23;15.43;;;6.93;;
30289;SDS011;17105;55.652;37.710;2022-09-13T01:01:00;12.75;;;6.75;;
30289;SDS011;17105;55.652;37.710;2022-09-13T01:01:37;16.08;;;6.75;;
30289;SDS011;17105;55.652;37.710;2022-09-13T01:02:18;11.70;;;6.88;;
30289;SDS011;17105;55.652;37.710;2022-09-13T01:02:54;15.63;;;7.20;;
30289;SDS011;17105;55.652;37.710;2022-09-13T01:03:30;15.68;;;6.95;;
30289;SDS011;17105;55.652;37.710;2022-09-13T01:04:04;12.30;;;7.10;;
30289;SDS011;17105;55.652;37.710;2022-09-13T01:04:44;14.88;;;7.05;;
30289;SDS011;17105;55.652;37.710;2022-09-13T01:05:18;16.33;;;6.65;;
30289;SDS011;17105;55.652;37.710;2022-09-13T01:05:55;14.73;;;6.70;;
30289;SDS011;17105;55.652;37.710;2022-09-13T01:06:30;16.05;;;6.85;;
30289;SDS011;17105;55.652;37.710;2022-09-13T01:07:10;14.88;;;6.25;;
30289;SDS011;17105;55.652;37.710;2022-09-13T01:07:45;14.68;;;7.22;;
30289;SDS011;17105;55.652;37.710;2022-09-13T01:08:18;15.20;;;7.07;;
30289;SDS011;17105;55.652;37.710;2022-09-13T01:08:55;11.23;;;6.90;;
30289;SDS011;17105;55.652;37.710;2022-09-13T01:09:37;12.00;;;6.50;;
30289;SDS011;17105;55.652;37.710;2022-09-13T01:10:11;13.75;;;6.68;;
30289;SDS011;17105;55.652;37.710;2022-09-13T01:10:47;14.25;;;7.10;;
30289;SDS011;17105;55.652;37.710;2022-09-13T01:11:23;11.85;;;6.90;;
30289;SDS011;17105;55.652;37.710;2022-09-13T01:11:59;13.75;;;6.93;;
30289;SDS011;17105;55.652;37.710;2022-09-13T01:12:39;13.80;;;6.93;;
30289;SDS011;17105;55.652;37.710;2022-09-13T01:13:17;15.88;;;6.55;;
30289;SDS011;17105;55.652;37.710;2022-09-13T01:13:51;13.40;;;6.32;;
30289;SDS011;17105;55.652;37.710;2022-09-13T01:14:26;14.90;;;7.10;;
30289;SDS011;17105;55.652;37.710;2022-09-13T01:15:00;12.57;;;6.80;;
30289;SDS011;17105;55.652;37.710;2022-09-13T01:15:37;10.98;;;6.70;;
30289;SDS011;17105;55.652;37.710;2022-09-13T01:16:12;11.75;;;6.80;;
30289;SDS011;17105;55.652;37.710;2022-09-13T01:17:04;12.27;;;6.25;;
30289;SDS011;17105;55.652;37.710;2022-09-13T01:17:40;12.98;;;6.55;;
30289;SDS011;17105;55.652;37.710;2022-09-13T01:18:15;15.65;;;7.05;;
30289;SDS011;17105;55.652;37.710;2022-09-13T01:18:50;17.40;;;7.18;;
30289;SDS011;17105;55.652;37.710;2022-09-13T01:19:26;14.20;;;6.50;;
30289;SDS011;17105;55.652;37.710;2022-09-13T01:20:00;13.45;;;6.57;;
30289;SDS011;17105;55.652;37.710;2022-09-13T01:20:39;14.68;;;6.75;;
30289;SDS011;17105;55.652;37.710;2022-09-13T01:21:36;13.18;;;6.80;;
30289;SDS011;17105;55.652;37.710;2022-09-13T01:23:21;14.05;;;6.38;;
30289;SDS011;17105;55.652;37.710;2022-09-13T01:24:09;13.15;;;6.40;;
30289;SDS011;17105;55.652;37.710;2022-09-13T01:27:27;14.63;;;7.35;;
30289;SDS011;17105;55.652;37.710;2022-09-13T01:30:06;12.95;;;6.47;;
30289;SDS011;17105;55.652;37.710;2022-09-13T01:30:42;12.63;;;6.18;;
30289;SDS011;17105;55.652;37.710;2022-09-13T01:31:20;15.30;;;6.20;;
30289;SDS011;17105;55.652;37.710;2022-09-13T01:32:01;12.65;;;6.18;;
30289;SDS011;17105;55.652;37.710;2022-09-13T01:32:42;14.43;;;6.47;;
30289;SDS011;17105;55.652;37.710;2022-09-13T01:33:28;15.52;;;5.80;;
30289;SDS011;17105;55.652;37.710;2022-09-13T01:34:25;12.77;;;6.00;;
30289;SDS011;17105;55.652;37.710;2022-09-13T01:35:06;13.02;;;6.18;;
30289;SDS011;17105;55.652;37.710;2022-09-13T01:36:09;11.80;;;6.18;;
30289;SDS011;17105;55.652;37.710;2022-09-13T01:37:50;14.00;;;6.18;;
30289;SDS011;17105;55.652;37.710;2022-09-13T01:39:23;12.85;;;6.00;;
30289;SDS011;17105;55.652;37.710;2022-09-13T01:40:05;12.90;;;5.68;;
30289;SDS011;17105;55.652;37.710;2022-09-13T01:40:47;10.48;;;5.90;;
30289;SDS011;17105;55.652;37.710;2022-09-13T01:41:31;10.25;;;5.55;;
30289;SDS011;17105;55.652;37.710;2022-09-13T01:42:10;11.95;;;5.90;;
30289;SDS011;17105;55.652;37.710;2022-09-13T01:42:59;12.52;;;5.97;;
30289;SDS011;17105;55.652;37.710;2022-09-13T01:43:39;11.02;;;5.82;;
30289;SDS011;17105;55.652;37.710;2022-09-13T01:44:18;12.05;;;5.93;;
30289;SDS011;17105;55.652;37.710;2022-09-13T01:45:02;16.45;;;6.35;;
30289;SDS011;17105;55.652;37.710;2022-09-13T01:45:44;9.98;;;6.10;;
30289;SDS011;17105;55.652;37.710;2022-09-13T01:46:22;10.73;;;5.65;;
30289;SDS011;17105;55.652;37.710;2022-09-13T01:47:02;9.63;;;5.70;;
30289;SDS011;17105;55.652;37.710;2022-09-13T01:47:38;16.52;;;6.47;;
30289;SDS011;17105;55.652;37.710;2022-09-13T01:48:15;13.90;;;6.00;;
30289;SDS011;17105;55.652;37.710;2022-09-13T01:48:53;11.90;;;6.05;;
30289;SDS011;17105;55.652;37.710;2022-09-13T01:49:29;10.70;;;5.90;;
30289;SDS011;17105;55.652;37.710;2022-09-13T01:50:11;14.95;;;6.75;;
30289;SDS011;17105;55.652;37.710;2022-09-13T01:50:46;10.65;;;6.18;;
30289;SDS011;17105;55.652;37.710;2022-09-13T01:51:25;11.68;;;6.22;;
30289;SDS011;17105;55.652;37.710;2022-09-13T01:52:00;12.73;;;6.32;;
30289;SDS011;17105;55.652;37.710;2022-09-13T01:52:39;14.43;;;6.00;;
30289;SDS011;17105;55.652;37.710;2022-09-13T01:53:17;8.82;;;5.78;;
30289;SDS011;17105;55.652;37.710;2022-09-13T01:53:57;18.00;;;6.60;;
30289;SDS011;17105;55.652;37.710;2022-09-13T01:54:36;14.50;;;6.97;;
30289;SDS011;17105;55.652;37.710;2022-09-13T01:55:17;16.10;;;7.63;;
30289;SDS011;17105;55.652;37.710;2022-09-13T01:55:56;14.77;;;8.18;;
30289;SDS011;17105;55.652;37.710;2022-09-13T01:56:34;14.70;;;7.13;;
30289;SDS011;17105;55.652;37.710;2022-09-13T01:57:11;20.95;;;8.95;;
30289;SDS011;17105;55.652;37.710;2022-09-13T01:57:47;17.88;;;9.52;;
30289;SDS011;17105;55.652;37.710;2022-09-13T01:58:26;17.80;;;9.68;;
30289;SDS011;17105;55.652;37.710;2022-09-13T01:59:02;18.02;;;9.73;;
30289;SDS011;17105;55.652;37.710;2022-09-13T01:59:38;21.05;;;9.88;;
30289;SDS011;17105;55.652;37.710;2022-09-13T02:00:23;23.13;;;11.63;;
30289;SDS011;17105;55.652;37.710;2022-09-13T02:01:00;24.77;;;11.73;;
30289;SDS011;17105;55.652;37.710;2022-09-13T02:01:37;23.67;;;12.60;;
30289;SDS011;17105;55.652;37.710;2022-09-13T02:02:14;30.95;;;14.38;;
30289;SDS011;17105;55.652;37.710;2022-09-13T02:02:52;26.50;;;13.80;;
30289;SDS011;17105;55.652;37.710;2022-09-13T02:03:30;23.48;;;13.60;;
30289;SDS011;17105;55.652;37.710;2022-09-13T02:04:08;27.27;;;15.48;;
30289;SDS011;17105;55.652;37.710;2022-09-13T02:04:45;31.92;;;16.20;;
30289;SDS011;17105;55.652;37.710;2022-09-13T02:05:21;31.00;;;16.15;;
30289;SDS011;17105;55.652;37.710;2022-09-13T02:05:58;32.00;;;16.60;;
30289;SDS011;17105;55.652;37.710;2022-09-13T02:06:34;37.72;;;17.17;;
30289;SDS011;17105;55.652;37.710;2022-09-13T02:07:09;31.38;;;16.67;;
30289;SDS011;17105;55.652;37.710;2022-09-13T02:07:48;38.33;;;19.98;;
30289;SDS011;17105;55.652;37.710;2022-09-13T02:08:24;33.15;;;19.10;;
30289;SDS011;17105;55.652;37.710;2022-09-13T02:09:00;40.03;;;19.50;;
30289;SDS011;17105;55.652;37.710;2022-09-13T02:09:37;37.17;;;18.80;;
30289;SDS011;17105;55.652;37.710;2022-09-13T02:10:14;38.55;;;18.02;;
30289;SDS011;17105;55.652;37.710;2022-09-13T02:10:49;35.45;;;19.00;;
30289;SDS011;17105;55.652;37.710;2022-09-13T02:11:26;39.30;;;21.90;;
30289;SDS011;17105;55.652;37.710;2022-09-13T02:12:01;44.40;;;21.63;;
30289;SDS011;17105;55.652;37.710;2022-09-13T02:12:37;41.05;;;21.02;;
30289;SDS011;17105;55.652;37.710;2022-09-13T02:13:16;42.67;;;21.65;;
30289;SDS011;17105;55.652;37.710;2022-09-13T02:13:53;41.28;;;21.52;;
30289;SDS011;17105;55.652;37.710;2022-09-13T02:14:30;41.55;;;21.05;;
30289;SDS011;17105;55.652;37.710;2022-09-13T02:15:08;40.63;;;22.08;;
30289;SDS011;17105;55.652;37.710;2022-09-13T02:15:43;45.47;;;22.90;;
30289;SDS011;17105;55.652;37.710;2022-09-13T02:16:24;38.65;;;21.35;;
30289;SDS011;17105;55.652;37.710;2022-09-13T02:17:00;45.15;;;22.00;;
30289;SDS011;17105;55.652;37.710;2022-09-13T02:17:36;36.85;;;21.25;;
30289;SDS011;17105;55.652;37.710;2022-09-13T02:18:13;43.78;;;21.80;;
30289;SDS011;17105;55.652;37.710;2022-09-13T02:18:50;37.65;;;20.90;;
30289;SDS011;17105;55.652;37.710;2022-09-13T02:19:29;39.13;;;21.10;;
30289;SDS011;17105;55.652;37.710;2022-09-13T02:20:07;39.53;;;21.55;;
30289;SDS011;17105;55.652;37.710;2022-09-13T02:20:46;41.17;;;21.17;;
30289;SDS011;17105;55.652;37.710;2022-09-13T02:21:24;37.47;;;20.90;;
30289;SDS011;17105;55.652;37.710;2022-09-13T02:22:00;39.53;;;20.48;;
30289;SDS011;17105;55.652;37.710;2022-09-13T02:22:34;38.20;;;20.13;;
30289;SDS011;17105;55.652;37.710;2022-09-13T02:23:11;40.28;;;20.75;;
30289;SDS011;17105;55.652;37.710;2022-09-13T02:23:46;36.50;;;20.10;;
30289;SDS011;17105;55.652;37.710;2022-09-13T02:24:22;35.30;;;19.10;;
30289;SDS011;17105;55.652;37.710;2022-09-13T02:24:59;40.28;;;20.65;;
30289;SDS011;17105;55.652;37.710;2022-09-13T02:25:32;37.80;;;19.35;;
30289;SDS011;17105;55.652;37.710;2022-09-13T02:26:08;36.97;;;21.05;;
30289;SDS011;17105;55.652;37.710;2022-09-13T02:26:46;42.63;;;21.08;;
30289;SDS011;17105;55.652;37.710;2022-09-13T02:27:24;35.90;;;20.00;;
30289;SDS011;17105;55.652;37.710;2022-09-13T02:28:00;36.35;;;19.30;;
30289;SDS011;17105;55.652;37.710;2022-09-13T02:28:40;38.05;;;19.95;;
30289;SDS011;17105;55.652;37.710;2022-09-13T02:29:15;35.88;;;19.23;;
30289;SDS011;17105;55.652;37.710;2022-09-13T02:29:52;37.75;;;19.83;;
30289;SDS011;17105;55.652;37.710;2022-09-13T02:30:30;35.40;;;19.35;;
30289;SDS011;17105;55.652;37.710;2022-09-13T02:31:04;37.42;;;19.73;;
30289;SDS011;17105;55.652;37.710;2022-09-13T02:31:43;57.90;;;32.13;;
30289;SDS011;17105;55.652;37.710;2022-09-13T02:32:20;32.95;;;17.45;;
30289;SDS011;17105;55.652;37.710;2022-09-13T02:32:55;37.95;;;20.88;;
30289;SDS011;17105;55.652;37.710;2022-09-13T02:33:30;46.15;;;20.05;;
30289;SDS011;17105;55.652;37.710;2022-09-13T02:34:08;31.17;;;16.23;;
30289;SDS011;17105;55.652;37.710;2022-09-13T02:34:45;36.25;;;17.35;;
30289;SDS011;17105;55.652;37.710;2022-09-13T02:35:21;28.85;;;15.85;;
30289;SDS011;17105;55.652;37.710;2022-09-13T02:35:59;28.45;;;14.55;;
30289;SDS011;17105;55.652;37.710;2022-09-13T02:36:34;30.13;;;14.52;;
30289;SDS011;17105;55.652;37.710;2022-09-13T02:37:09;24.85;;;13.35;;
30289;SDS011;17105;55.652;37.710;2022-09-13T02:37:46;26.42;;;13.70;;
30289;SDS011;17105;55.652;37.710;2022-09-13T02:38:22;30.40;;;13.90;;
30289;SDS011;17105;55.652;37.710;2022-09-13T02:38:58;23.75;;;12.90;;
30289;SDS011;17105;55.652;37.710;2022-09-13T02:39:34;23.13;;;13.07;;
30289;SDS011;17105;55.652;37.710;2022-09-13T02:40:11;24.10;;;13.43;;
30289;SDS011;17105;55.652;37.710;2022-09-13T02:40:48;23.20;;;13.27;;
30289;SDS011;17105;55.652;37.710;2022-09-13T02:41:29;23.17;;;12.60;;
30289;SDS011;17105;55.652;37.710;2022-09-13T02:42:07;25.45;;;11.73;;
30289;SDS011;17105;55.652;37.710;2022-09-13T02:42:46;23.58;;;11.80;;
30289;SDS011;17105;55.652;37.710;2022-09-13T02:43:21;25.70;;;12.23;;
30289;SDS011;17105;55.652;37.710;2022-09-13T02:43:59;23.67;;;12.63;;
30289;SDS011;17105;55.652;37.710;2022-09-13T02:44:37;25.45;;;12.68;;
30289;SDS011;17105;55.652;37.710;2022-09-13T02:45:13;22.23;;;10.88;;
30289;SDS011;17105;55.652;37.710;2022-09-13T02:45:50;21.27;;;10.80;;
30289;SDS011;17105;55.652;37.710;2022-09-13T02:46:29;19.65;;;10.90;;
30289;SDS011;17105;55.652;37.710;2022-09-13T02:47:21;19.30;;;10.13;;
30289;SDS011;17105;55.652;37.710;2022-09-13T02:47:57;20.65;;;10.15;;
30289;SDS011;17105;55.652;37.710;2022-09-13T02:48:35;23.23;;;10.43;;
30289;SDS011;17105;55.652;37.710;2022-09-13T02:49:19;17.00;;;9.77;;
30289;SDS011;17105;55.652;37.710;2022-09-13T02:49:57;16.08;;;9.77;;
30289;SDS011;17105;55.652;37.710;2022-09-13T02:50:41;16.52;;;9.43;;
30289;SDS011;17105;55.652;37.710;2022-09-13T02:51:23;17.33;;;9.23;;
30289;SDS011;17105;55.652;37.710;2022-09-13T02:52:00;17.20;;;8.70;;
30289;SDS011;17105;55.652;37.710;2022-09-13T02:52:44;16.80;;;9.82;;
30289;SDS011;17105;55.652;37.710;2022-09-13T02:53:20;17.60;;;9.27;;
30289;SDS011;17105;55.652;37.710;2022-09-13T02:54:00;16.80;;;9.02;;
30289;SDS011;17105;55.652;37.710;2022-09-13T02:54:41;17.13;;;8.93;;
30289;SDS011;17105;55.652;37.710;2022-09-13T02:55:17;18.10;;;8.80;;
30289;SDS011;17105;55.652;37.710;2022-09-13T02:55:56;20.80;;;9.02;;
30289;SDS011;17105;55.652;37.710;2022-09-13T02:56:33;14.82;;;8.30;;
30289;SDS011;17105;55.652;37.710;2022-09-13T02:57:11;16.65;;;9.18;;
30289;SDS011;17105;55.652;37.710;2022-09-13T02:57:53;17.55;;;8.73;;
30289;SDS011;17105;55.652;37.710;2022-09-13T02:58:31;17.92;;;8.48;;
30289;SDS011;17105;55.652;37.710;2022-09-13T02:59:08;19.40;;;8.50;;
30289;SDS011;17105;55.652;37.710;2022-09-13T02:59:45;14.45;;;8.52;;
30289;SDS011;17105;55.652;37.710;2022-09-13T03:00:22;16.48;;;8.27;;
30289;SDS011;17105;55.652;37.710;2022-09-13T03:00:58;19.67;;;8.80;;
30289;SDS011;17105;55.652;37.710;2022-09-13T03:01:33;16.98;;;8.63;;
30289;SDS011;17105;55.652;37.710;2022-09-13T03:02:08;16.90;;;8.05;;
30289;SDS011;17105;55.652;37.710;2022-09-13T03:02:47;16.17;;;8.40;;
30289;SDS011;17105;55.652;37.710;2022-09-13T03:03:22;14.25;;;7.50;;
30289;SDS011;17105;55.652;37.710;2022-09-13T03:03:56;15.95;;;8.18;;
30289;SDS011;17105;55.652;37.710;2022-09-13T03:04:31;14.65;;;8.40;;
30289;SDS011;17105;55.652;37.710;2022-09-13T03:05:06;52.78;;;26.70;;
30289;SDS011;17105;55.652;37.710;2022-09-13T03:05:40;59.03;;;32.40;;
30289;SDS011;17105;55.652;37.710;2022-09-13T03:06:20;289.08;;;166.82;;
30289;SDS011;17105;55.652;37.710;2022-09-13T03:06:55;148.80;;;78.90;;
30289;SDS011;17105;55.652;37.710;2022-09-13T03:07:29;32.88;;;18.25;;
30289;SDS011;17105;55.652;37.710;2022-09-13T03:08:05;18.35;;;9.55;;
30289;SDS011;17105;55.652;37.710;2022-09-13T03:08:41;16.30;;;8.65;;
30289;SDS011;17105;55.652;37.710;2022-09-13T03:09:15;15.95;;;8.80;;
30289;SDS011;17105;55.652;37.710;2022-09-13T03:09:52;15.35;;;8.02;;
30289;SDS011;17105;55.652;37.710;2022-09-13T03:10:27;21.02;;;8.23;;
30289;SDS011;17105;55.652;37.710;2022-09-13T03:11:07;16.00;;;8.15;;
30289;SDS011;17105;55.652;37.710;2022-09-13T03:11:51;15.90;;;7.88;;
30289;SDS011;17105;55.652;37.710;2022-09-13T03:12:33;14.05;;;7.97;;
30289;SDS011;17105;55.652;37.710;2022-09-13T03:14:13;27.30;;;14.43;;
30289;SDS011;17105;55.652;37.710;2022-09-13T03:14:52;55.25;;;27.65;;
30289;SDS011;17105;55.652;37.710;2022-09-13T03:15:32;24.52;;;14.20;;
30289;SDS011;17105;55.652;37.710;2022-09-13T03:16:14;23.85;;;12.95;;
30289;SDS011;17105;55.652;37.710;2022-09-13T03:16:59;18.55;;;8.15;;
30289;SDS011;17105;55.652;37.710;2022-09-13T03:17:40;16.45;;;8.57;;
30289;SDS011;17105;55.652;37.710;2022-09-13T03:18:22;14.48;;;7.97;;
30289;SDS011;17105;55.652;37.710;2022-09-13T03:19:06;14.43;;;7.72;;
30289;SDS011;17105;55.652;37.710;2022-09-13T03:19:59;15.90;;;8.40;;
30289;SDS011;17105;55.652;37.710;2022-09-13T03:20:45;15.60;;;7.78;;
30289;SDS011;17105;55.652;37.710;2022-09-13T03:21:28;13.90;;;8.35;;
30289;SDS011;17105;55.652;37.710;2022-09-13T03:22:14;14.82;;;7.72;;
30289;SDS011;17105;55.652;37.710;2022-09-13T03:22:57;60.88;;;36.15;;
30289;SDS011;17105;55.652;37.710;2022-09-13T03:23:40;175.88;;;88.85;;
30289;SDS011;17105;55.652;37.710;2022-09-13T03:24:20;259.52;;;136.10;;
30289;SDS011;17105;55.652;37.710;2022-09-13T03:24:57;89.05;;;47.55;;
30289;SDS011;17105;55.652;37.710;2022-09-13T03:25:42;17.42;;;9.35;;
30289;SDS011;17105;55.652;37.710;2022-09-13T03:26:31;13.68;;;8.52;;
30289;SDS011;17105;55.652;37.710;2022-09-13T03:27:11;13.63;;;8.25;;
30289;SDS011;17105;55.652;37.710;2022-09-13T03:27:50;18.38;;;8.35;;
30289;SDS011;17105;55.652;37.710;2022-09-13T03:28:27;15.48;;;8.00;;
30289;SDS011;17105;55.652;37.710;2022-09-13T03:29:08;17.70;;;7.20;;
30289;SDS011;17105;55.652;37.710;2022-09-13T03:29:45;13.05;;;7.22;;
30289;SDS011;17105;55.652;37.710;2022-09-13T03:30:23;14.07;;;7.65;;
30289;SDS011;17105;55.652;37.710;2022-09-13T03:30:59;14.00;;;7.55;;
30289;SDS011;17105;55.652;37.710;2022-09-13T03:31:36;14.05;;;7.60;;
30289;SDS011;17105;55.652;37.710;2022-09-13T03:32:18;17.65;;;8.50;;
30289;SDS011;17105;55.652;37.710;2022-09-13T03:32:56;17.08;;;8.30;;
30289;SDS011;17105;55.652;37.710;2022-09-13T03:33:35;20.95;;;7.72;;
30289;SDS011;17105;55.652;37.710;2022-09-13T03:34:15;15.13;;;8.05;;
30289;SDS011;17105;55.652;37.710;2022-09-13T03:34:54;12.73;;;7.43;;
30289;SDS011;17105;55.652;37.710;2022-09-13T03:35:35;12.38;;;7.38;;
30289;SDS011;17105;55.652;37.710;2022-09-13T03:36:13;14.35;;;7.45;;
30289;SDS011;17105;55.652;37.710;2022-09-13T03:36:50;15.68;;;7.88;;
30289;SDS011;17105;55.652;37.710;2022-09-13T03:37:29;27.45;;;16.13;;
30289;SDS011;17105;55.652;37.710;2022-09-13T03:38:07;115.70;;;60.80;;
30289;SDS011;17105;55.652;37.710;2022-09-13T03:38:43;204.63;;;111.45;;
30289;SDS011;17105;55.652;37.710;2022-09-13T03:39:20;300.38;;;181.05;;
30289;SDS011;17105;55.652;37.710;2022-09-13T03:39:59;26.33;;;15.48;;
30289;SDS011;17105;55.652;37.710;2022-09-13T03:40:39;16.58;;;9.30;;
30289;SDS011;17105;55.652;37.710;2022-09-13T03:41:14;19.52;;;8.63;;
30289;SDS011;17105;55.652;37.710;2022-09-13T03:41:53;16.00;;;7.95;;
30289;SDS011;17105;55.652;37.710;2022-09-13T03:42:30;15.70;;;8.27;;
30289;SDS011;17105;55.652;37.710;2022-09-13T03:43:08;15.10;;;7.55;;
30289;SDS011;17105;55.652;37.710;2022-09-13T03:43:46;18.08;;;8.10;;
30289;SDS011;17105;55.652;37.710;2022-09-13T03:44:22;22.15;;;8.68;;
30289;SDS011;17105;55.652;37.710;2022-09-13T03:44:58;16.33;;;7.18;;
30289;SDS011;17105;55.652;37.710;2022-09-13T03:45:34;15.68;;;7.00;;
30289;SDS011;17105;55.652;37.710;2022-09-13T03:46:10;14.48;;;7.65;;
30289;SDS011;17105;55.652;37.710;2022-09-13T03:46:47;17.30;;;8.02;;
30289;SDS011;17105;55.652;37.710;2022-09-13T03:47:22;17.83;;;7.32;;